sensor_id;sensor_type;location;lat;lon;timestamp;P1;durP1;ratioP1;P2;durP2;ratioP2
77733;SDS011;66902;41.720;44.796;2024-02-15T00:01:06;39.70;;;26.50;;
77733;SDS011;66902;41.720;44.796;2024-02-15T00:03:41;40.30;;;28.70;;
77733;SDS011;66902;41.720;44.796;2024-02-15T00:06:15;35.20;;;24.50;;
77733;SDS011;66902;41.720;44.796;2024-02-15T00:08:48;33.20;;;23.60;;
77733;SDS011;66902;41.720;44.796;2024-02-15T00:11:23;28.90;;;23.30;;
77733;SDS011;66902;41.720;44.796;2024-02-15T00:13:57;44.20;;;23.80;;
77733;SDS011;66902;41.720;44.796;2024-02-15T00:16:30;41.50;;;25.70;;
77733;SDS011;66902;41.720;44.796;2024-02-15T00:19:04;34.10;;;25.30;;
77733;SDS011;66902;41.720;44.796;2024-02-15T00:21:42;38.90;;;24.60;;
77733;SDS011;66902;41.720;44.796;2024-02-15T00:24:15;34.00;;;23.80;;
77733;SDS011;66902;41.720;44.796;2024-02-15T00:26:49;40.80;;;24.60;;
77733;SDS011;66902;41.720;44.796;2024-02-15T00:29:24;30.90;;;25.70;;
77733;SDS011;66902;41.720;44.796;2024-02-15T00:31:59;33.90;;;25.10;;
77733;SDS011;66902;41.720;44.796;2024-02-15T00:34:34;40.20;;;24.10;;
77733;SDS011;66902;41.720;44.796;2024-02-15T00:37:08;28.10;;;22.50;;
77733;SDS011;66902;41.720;44.796;2024-02-15T00:39:43;28.90;;;22.90;;
77733;SDS011;66902;41.720;44.796;2024-02-15T00:42:16;31.10;;;21.30;;
77733;SDS011;66902;41.720;44.796;2024-02-15T00:44:50;29.40;;;20.60;;
77733;SDS011;66902;41.720;44.796;2024-02-15T00:47:23;28.40;;;19.70;;
77733;SDS011;66902;41.720;44.796;2024-02-15T00:49:58;27.30;;;22.00;;
77733;SDS011;66902;41.720;44.796;2024-02-15T00:52:33;31.10;;;22.80;;
77733;SDS011;66902;41.720;44.796;2024-02-15T00:55:08;29.80;;;21.20;;
77733;SDS011;66902;41.720;44.796;2024-02-15T00:57:42;27.60;;;22.20;;
77733;SDS011;66902;41.720;44.796;2024-02-15T01:00:16;36.90;;;22.50;;
77733;SDS011;66902;41.720;44.796;2024-02-15T01:02:50;28.00;;;22.40;;
77733;SDS011;66902;41.720;44.796;2024-02-15T01:05:25;30.50;;;21.60;;
77733;SDS011;66902;41.720;44.796;2024-02-15T01:08:00;29.90;;;20.60;;
77733;SDS011;66902;41.720;44.796;2024-02-15T01:10:35;29.90;;;20.50;;
77733;SDS011;66902;41.720;44.796;2024-02-15T01:13:09;35.30;;;21.20;;
77733;SDS011;66902;41.720;44.796;2024-02-15T01:15:43;29.80;;;20.40;;
77733;SDS011;66902;41.720;44.796;2024-02-15T01:18:17;31.50;;;21.90;;
77733;SDS011;66902;41.720;44.796;2024-02-15T01:20:50;36.20;;;22.60;;
77733;SDS011;66902;41.720;44.796;2024-02-15T01:23:24;27.20;;;22.50;;
77733;SDS011;66902;41.720;44.796;2024-02-15T01:25:58;31.50;;;21.80;;
77733;SDS011;66902;41.720;44.796;2024-02-15T01:28:31;31.40;;;21.70;;
77733;SDS011;66902;41.720;44.796;2024-02-15T01:31:07;28.40;;;19.80;;
77733;SDS011;66902;41.720;44.796;2024-02-15T01:33:41;37.00;;;22.40;;
77733;SDS011;66902;41.720;44.796;2024-02-15T01:36:15;38.70;;;24.10;;
77733;SDS011;66902;41.720;44.796;2024-02-15T01:38:50;41.00;;;24.60;;
77733;SDS011;66902;41.720;44.796;2024-02-15T01:41:24;27.40;;;22.40;;
77733;SDS011;66902;41.720;44.796;2024-02-15T01:43:57;34.80;;;23.00;;
77733;SDS011;66902;41.720;44.796;2024-02-15T01:46:31;39.80;;;23.70;;
77733;SDS011;66902;41.720;44.796;2024-02-15T01:49:05;32.10;;;24.30;;
77733;SDS011;66902;41.720;44.796;2024-02-15T01:51:39;31.20;;;23.50;;
77733;SDS011;66902;41.720;44.796;2024-02-15T01:54:13;34.70;;;24.60;;
77733;SDS011;66902;41.720;44.796;2024-02-15T01:56:48;41.90;;;26.00;;
77733;SDS011;66902;41.720;44.796;2024-02-15T01:59:22;36.00;;;25.40;;
77733;SDS011;66902;41.720;44.796;2024-02-15T02:01:56;32.80;;;25.30;;
77733;SDS011;66902;41.720;44.796;2024-02-15T02:04:30;33.90;;;24.90;;
77733;SDS011;66902;41.720;44.796;2024-02-15T02:07:04;29.00;;;23.00;;
77733;SDS011;66902;41.720;44.796;2024-02-15T02:09:38;38.70;;;25.10;;
77733;SDS011;66902;41.720;44.796;2024-02-15T02:12:12;27.40;;;23.10;;
77733;SDS011;66902;41.720;44.796;2024-02-15T02:14:45;37.00;;;23.80;;
77733;SDS011;66902;41.720;44.796;2024-02-15T02:17:19;34.80;;;23.20;;
77733;SDS011;66902;41.720;44.796;2024-02-15T02:19:53;31.00;;;23.00;;
77733;SDS011;66902;41.720;44.796;2024-02-15T02:22:28;32.30;;;22.20;;
77733;SDS011;66902;41.720;44.796;2024-02-15T02:25:03;36.70;;;23.70;;
77733;SDS011;66902;41.720;44.796;2024-02-15T02:27:39;31.00;;;23.20;;
77733;SDS011;66902;41.720;44.796;2024-02-15T02:30:15;32.50;;;23.10;;
77733;SDS011;66902;41.720;44.796;2024-02-15T02:32:49;33.10;;;24.60;;
77733;SDS011;66902;41.720;44.796;2024-02-15T02:35:23;33.90;;;24.50;;
77733;SDS011;66902;41.720;44.796;2024-02-15T02:37:58;36.20;;;24.00;;
77733;SDS011;66902;41.720;44.796;2024-02-15T02:40:33;36.50;;;24.10;;
77733;SDS011;66902;41.720;44.796;2024-02-15T02:43:06;38.60;;;25.00;;
77733;SDS011;66902;41.720;44.796;2024-02-15T02:45:40;32.10;;;23.80;;
77733;SDS011;66902;41.720;44.796;2024-02-15T02:48:15;37.90;;;25.50;;
77733;SDS011;66902;41.720;44.796;2024-02-15T02:50:49;36.70;;;25.40;;
77733;SDS011;66902;41.720;44.796;2024-02-15T02:53:23;37.70;;;26.20;;
77733;SDS011;66902;41.720;44.796;2024-02-15T02:55:57;33.40;;;24.90;;
77733;SDS011;66902;41.720;44.796;2024-02-15T02:58:31;35.40;;;26.40;;
77733;SDS011;66902;41.720;44.796;2024-02-15T03:01:05;39.50;;;25.00;;
77733;SDS011;66902;41.720;44.796;2024-02-15T03:03:39;33.80;;;25.90;;
77733;SDS011;66902;41.720;44.796;2024-02-15T03:06:14;31.20;;;24.00;;
77733;SDS011;66902;41.720;44.796;2024-02-15T03:08:47;31.20;;;24.10;;
77733;SDS011;66902;41.720;44.796;2024-02-15T03:11:25;34.20;;;26.10;;
77733;SDS011;66902;41.720;44.796;2024-02-15T03:13:59;37.40;;;25.20;;
77733;SDS011;66902;41.720;44.796;2024-02-15T03:16:34;33.00;;;25.60;;
77733;SDS011;66902;41.720;44.796;2024-02-15T03:19:08;35.00;;;24.40;;
77733;SDS011;66902;41.720;44.796;2024-02-15T03:21:42;39.50;;;23.20;;
77733;SDS011;66902;41.720;44.796;2024-02-15T03:24:16;31.00;;;24.00;;
77733;SDS011;66902;41.720;44.796;2024-02-15T03:26:51;36.10;;;23.50;;
77733;SDS011;66902;41.720;44.796;2024-02-15T03:29:25;35.90;;;24.80;;
77733;SDS011;66902;41.720;44.796;2024-02-15T03:32:00;31.70;;;22.90;;
77733;SDS011;66902;41.720;44.796;2024-02-15T03:34:34;28.60;;;22.60;;
77733;SDS011;66902;41.720;44.796;2024-02-15T03:37:09;36.20;;;23.00;;
77733;SDS011;66902;41.720;44.796;2024-02-15T03:39:43;35.40;;;23.70;;
77733;SDS011;66902;41.720;44.796;2024-02-15T03:42:17;33.30;;;20.50;;
77733;SDS011;66902;41.720;44.796;2024-02-15T03:44:51;31.10;;;22.90;;
77733;SDS011;66902;41.720;44.796;2024-02-15T03:47:26;33.60;;;22.60;;
77733;SDS011;66902;41.720;44.796;2024-02-15T03:49:59;31.60;;;23.10;;
77733;SDS011;66902;41.720;44.796;2024-02-15T03:52:35;32.30;;;22.70;;
77733;SDS011;66902;41.720;44.796;2024-02-15T03:55:09;30.90;;;24.00;;
77733;SDS011;66902;41.720;44.796;2024-02-15T03:57:43;33.40;;;24.30;;
77733;SDS011;66902;41.720;44.796;2024-02-15T04:00:17;42.10;;;26.90;;
77733;SDS011;66902;41.720;44.796;2024-02-15T04:02:52;31.60;;;25.30;;
77733;SDS011;66902;41.720;44.796;2024-02-15T04:05:26;41.10;;;26.80;;
77733;SDS011;66902;41.720;44.796;2024-02-15T04:08:00;36.00;;;27.50;;
77733;SDS011;66902;41.720;44.796;2024-02-15T04:10:35;49.10;;;30.90;;
77733;SDS011;66902;41.720;44.796;2024-02-15T04:13:09;38.20;;;31.20;;
77733;SDS011;66902;41.720;44.796;2024-02-15T04:15:43;39.70;;;28.60;;
77733;SDS011;66902;41.720;44.796;2024-02-15T04:18:20;50.50;;;30.70;;
77733;SDS011;66902;41.720;44.796;2024-02-15T04:20:54;39.00;;;30.80;;
77733;SDS011;66902;41.720;44.796;2024-02-15T04:23:29;42.80;;;31.00;;
77733;SDS011;66902;41.720;44.796;2024-02-15T04:26:02;47.50;;;30.30;;
77733;SDS011;66902;41.720;44.796;2024-02-15T04:28:37;46.20;;;31.30;;
77733;SDS011;66902;41.720;44.796;2024-02-15T04:31:11;42.80;;;31.10;;
77733;SDS011;66902;41.720;44.796;2024-02-15T04:33:45;45.10;;;31.70;;
77733;SDS011;66902;41.720;44.796;2024-02-15T04:36:20;44.80;;;30.30;;
77733;SDS011;66902;41.720;44.796;2024-02-15T04:38:55;44.70;;;29.30;;
77733;SDS011;66902;41.720;44.796;2024-02-15T04:41:29;40.10;;;31.80;;
77733;SDS011;66902;41.720;44.796;2024-02-15T04:44:04;45.60;;;32.70;;
77733;SDS011;66902;41.720;44.796;2024-02-15T04:46:41;47.80;;;34.20;;
77733;SDS011;66902;41.720;44.796;2024-02-15T04:49:15;39.80;;;32.90;;
77733;SDS011;66902;41.720;44.796;2024-02-15T04:51:50;54.10;;;35.90;;
77733;SDS011;66902;41.720;44.796;2024-02-15T04:54:25;44.40;;;35.50;;
77733;SDS011;66902;41.720;44.796;2024-02-15T04:56:59;38.60;;;33.60;;
77733;SDS011;66902;41.720;44.796;2024-02-15T04:59:34;50.50;;;36.30;;
77733;SDS011;66902;41.720;44.796;2024-02-15T05:02:07;48.60;;;36.50;;
77733;SDS011;66902;41.720;44.796;2024-02-15T05:04:41;46.60;;;36.30;;
77733;SDS011;66902;41.720;44.796;2024-02-15T05:07:15;54.60;;;37.20;;
77733;SDS011;66902;41.720;44.796;2024-02-15T05:09:49;50.50;;;36.70;;
77733;SDS011;66902;41.720;44.796;2024-02-15T05:12:23;51.20;;;36.00;;
77733;SDS011;66902;41.720;44.796;2024-02-15T05:14:57;52.60;;;37.90;;
77733;SDS011;66902;41.720;44.796;2024-02-15T05:17:31;52.50;;;40.00;;
77733;SDS011;66902;41.720;44.796;2024-02-15T05:20:06;54.20;;;39.20;;
77733;SDS011;66902;41.720;44.796;2024-02-15T05:22:44;44.80;;;37.70;;
77733;SDS011;66902;41.720;44.796;2024-02-15T05:25:20;56.40;;;38.30;;
77733;SDS011;66902;41.720;44.796;2024-02-15T05:27:59;49.50;;;39.10;;
77733;SDS011;66902;41.720;44.796;2024-02-15T05:30:36;52.60;;;36.80;;
77733;SDS011;66902;41.720;44.796;2024-02-15T05:33:10;43.80;;;37.30;;
77733;SDS011;66902;41.720;44.796;2024-02-15T05:35:44;51.20;;;39.60;;
77733;SDS011;66902;41.720;44.796;2024-02-15T05:38:21;46.50;;;40.00;;
77733;SDS011;66902;41.720;44.796;2024-02-15T05:40:55;51.40;;;38.60;;
77733;SDS011;66902;41.720;44.796;2024-02-15T05:43:30;51.90;;;38.30;;
77733;SDS011;66902;41.720;44.796;2024-02-15T05:46:06;53.90;;;43.60;;
77733;SDS011;66902;41.720;44.796;2024-02-15T05:48:40;51.90;;;43.50;;
77733;SDS011;66902;41.720;44.796;2024-02-15T05:51:15;55.70;;;47.40;;
77733;SDS011;66902;41.720;44.796;2024-02-15T05:53:49;62.10;;;47.00;;
77733;SDS011;66902;41.720;44.796;2024-02-15T05:56:28;58.20;;;46.00;;
77733;SDS011;66902;41.720;44.796;2024-02-15T05:59:02;56.00;;;45.20;;
77733;SDS011;66902;41.720;44.796;2024-02-15T06:01:41;52.50;;;44.00;;
77733;SDS011;66902;41.720;44.796;2024-02-15T06:04:15;56.20;;;42.80;;
77733;SDS011;66902;41.720;44.796;2024-02-15T06:06:49;54.90;;;41.40;;
77733;SDS011;66902;41.720;44.796;2024-02-15T06:09:30;53.40;;;41.00;;
77733;SDS011;66902;41.720;44.796;2024-02-15T06:12:07;63.90;;;41.90;;
77733;SDS011;66902;41.720;44.796;2024-02-15T06:14:41;54.30;;;42.30;;
77733;SDS011;66902;41.720;44.796;2024-02-15T06:17:16;52.50;;;41.70;;
77733;SDS011;66902;41.720;44.796;2024-02-15T06:19:49;55.70;;;41.10;;
77733;SDS011;66902;41.720;44.796;2024-02-15T06:22:23;52.70;;;43.40;;
77733;SDS011;66902;41.720;44.796;2024-02-15T06:24:57;55.50;;;44.90;;
77733;SDS011;66902;41.720;44.796;2024-02-15T06:27:31;52.50;;;42.00;;
77733;SDS011;66902;41.720;44.796;2024-02-15T06:30:07;64.60;;;42.40;;
77733;SDS011;66902;41.720;44.796;2024-02-15T06:33:00;54.40;;;43.60;;
77733;SDS011;66902;41.720;44.796;2024-02-15T06:35:52;57.50;;;44.10;;
77733;SDS011;66902;41.720;44.796;2024-02-15T06:38:44;54.80;;;42.80;;
77733;SDS011;66902;41.720;44.796;2024-02-15T06:41:35;56.30;;;42.40;;
77733;SDS011;66902;41.720;44.796;2024-02-15T06:44:08;57.90;;;43.50;;
77733;SDS011;66902;41.720;44.796;2024-02-15T06:46:42;58.90;;;42.60;;
77733;SDS011;66902;41.720;44.796;2024-02-15T06:49:16;59.60;;;44.50;;
77733;SDS011;66902;41.720;44.796;2024-02-15T06:51:50;60.70;;;44.50;;
77733;SDS011;66902;41.720;44.796;2024-02-15T06:54:27;62.50;;;43.10;;
77733;SDS011;66902;41.720;44.796;2024-02-15T06:57:00;53.20;;;42.70;;
77733;SDS011;66902;41.720;44.796;2024-02-15T06:59:36;53.40;;;45.50;;
77733;SDS011;66902;41.720;44.796;2024-02-15T07:02:10;53.40;;;43.40;;
77733;SDS011;66902;41.720;44.796;2024-02-15T07:04:45;54.50;;;43.90;;
77733;SDS011;66902;41.720;44.796;2024-02-15T07:07:19;55.40;;;43.90;;
77733;SDS011;66902;41.720;44.796;2024-02-15T07:09:52;58.20;;;42.00;;
77733;SDS011;66902;41.720;44.796;2024-02-15T07:12:29;57.80;;;42.20;;
77733;SDS011;66902;41.720;44.796;2024-02-15T07:15:05;69.90;;;41.40;;
77733;SDS011;66902;41.720;44.796;2024-02-15T07:17:42;54.10;;;42.20;;
77733;SDS011;66902;41.720;44.796;2024-02-15T07:20:16;57.50;;;44.20;;
77733;SDS011;66902;41.720;44.796;2024-02-15T07:22:52;62.30;;;45.00;;
77733;SDS011;66902;41.720;44.796;2024-02-15T07:25:25;54.30;;;44.90;;
77733;SDS011;66902;41.720;44.796;2024-02-15T07:27:58;54.20;;;42.90;;
77733;SDS011;66902;41.720;44.796;2024-02-15T07:30:33;55.40;;;42.60;;
77733;SDS011;66902;41.720;44.796;2024-02-15T07:33:07;73.30;;;45.30;;
77733;SDS011;66902;41.720;44.796;2024-02-15T07:35:43;65.90;;;44.10;;
77733;SDS011;66902;41.720;44.796;2024-02-15T07:38:19;53.90;;;45.10;;
77733;SDS011;66902;41.720;44.796;2024-02-15T07:40:58;54.80;;;44.80;;
77733;SDS011;66902;41.720;44.796;2024-02-15T07:43:31;61.70;;;44.60;;
77733;SDS011;66902;41.720;44.796;2024-02-15T07:46:08;52.40;;;42.60;;
77733;SDS011;66902;41.720;44.796;2024-02-15T07:48:46;61.20;;;44.40;;
77733;SDS011;66902;41.720;44.796;2024-02-15T07:51:20;48.70;;;43.40;;
77733;SDS011;66902;41.720;44.796;2024-02-15T07:53:56;54.70;;;43.70;;
77733;SDS011;66902;41.720;44.796;2024-02-15T07:56:29;58.80;;;43.80;;
77733;SDS011;66902;41.720;44.796;2024-02-15T07:59:05;52.70;;;41.70;;
77733;SDS011;66902;41.720;44.796;2024-02-15T08:01:41;48.90;;;39.10;;
77733;SDS011;66902;41.720;44.796;2024-02-15T08:04:15;43.60;;;37.90;;
77733;SDS011;66902;41.720;44.796;2024-02-15T08:06:50;47.40;;;37.40;;
77733;SDS011;66902;41.720;44.796;2024-02-15T08:09:25;43.90;;;38.70;;
77733;SDS011;66902;41.720;44.796;2024-02-15T08:11:59;49.90;;;44.10;;
77733;SDS011;66902;41.720;44.796;2024-02-15T08:14:34;58.20;;;46.20;;
77733;SDS011;66902;41.720;44.796;2024-02-15T08:17:10;52.80;;;45.40;;
77733;SDS011;66902;41.720;44.796;2024-02-15T08:19:43;49.90;;;42.00;;
77733;SDS011;66902;41.720;44.796;2024-02-15T08:22:17;43.30;;;37.50;;
77733;SDS011;66902;41.720;44.796;2024-02-15T08:24:53;42.10;;;37.20;;
77733;SDS011;66902;41.720;44.796;2024-02-15T08:27:27;42.40;;;35.90;;
77733;SDS011;66902;41.720;44.796;2024-02-15T08:30:02;39.40;;;32.30;;
77733;SDS011;66902;41.720;44.796;2024-02-15T08:32:39;39.10;;;34.50;;
77733;SDS011;66902;41.720;44.796;2024-02-15T08:35:13;38.50;;;32.20;;
77733;SDS011;66902;41.720;44.796;2024-02-15T08:37:47;37.30;;;33.50;;
77733;SDS011;66902;41.720;44.796;2024-02-15T08:40:22;37.50;;;33.40;;
77733;SDS011;66902;41.720;44.796;2024-02-15T08:42:56;36.20;;;32.10;;
77733;SDS011;66902;41.720;44.796;2024-02-15T08:45:29;40.20;;;33.10;;
77733;SDS011;66902;41.720;44.796;2024-02-15T08:48:05;36.70;;;33.00;;
77733;SDS011;66902;41.720;44.796;2024-02-15T08:50:39;37.40;;;33.30;;
77733;SDS011;66902;41.720;44.796;2024-02-15T08:53:16;39.00;;;35.00;;
77733;SDS011;66902;41.720;44.796;2024-02-15T08:55:49;40.00;;;34.80;;
77733;SDS011;66902;41.720;44.796;2024-02-15T08:58:24;37.70;;;32.60;;
77733;SDS011;66902;41.720;44.796;2024-02-15T09:01:00;34.90;;;31.30;;
77733;SDS011;66902;41.720;44.796;2024-02-15T09:03:33;38.50;;;31.30;;
77733;SDS011;66902;41.720;44.796;2024-02-15T09:06:07;36.60;;;32.70;;
77733;SDS011;66902;41.720;44.796;2024-02-15T09:08:41;36.00;;;32.00;;
77733;SDS011;66902;41.720;44.796;2024-02-15T09:11:14;38.80;;;30.80;;
77733;SDS011;66902;41.720;44.796;2024-02-15T09:13:48;41.10;;;32.10;;
77733;SDS011;66902;41.720;44.796;2024-02-15T09:16:22;34.10;;;29.00;;
77733;SDS011;66902;41.720;44.796;2024-02-15T09:18:57;35.70;;;30.60;;
77733;SDS011;66902;41.720;44.796;2024-02-15T09:21:32;35.10;;;31.50;;
77733;SDS011;66902;41.720;44.796;2024-02-15T09:24:07;34.20;;;30.50;;
77733;SDS011;66902;41.720;44.796;2024-02-15T09:26:40;32.30;;;27.30;;
77733;SDS011;66902;41.720;44.796;2024-02-15T09:29:14;35.80;;;31.40;;
77733;SDS011;66902;41.720;44.796;2024-02-15T09:31:48;34.10;;;30.40;;
77733;SDS011;66902;41.720;44.796;2024-02-15T09:34:22;33.90;;;29.40;;
77733;SDS011;66902;41.720;44.796;2024-02-15T09:36:56;36.90;;;29.70;;
77733;SDS011;66902;41.720;44.796;2024-02-15T09:39:29;33.90;;;28.80;;
77733;SDS011;66902;41.720;44.796;2024-02-15T09:42:03;31.30;;;27.30;;
77733;SDS011;66902;41.720;44.796;2024-02-15T09:44:39;34.20;;;30.80;;
77733;SDS011;66902;41.720;44.796;2024-02-15T09:47:15;34.90;;;29.30;;
77733;SDS011;66902;41.720;44.796;2024-02-15T09:49:50;36.10;;;29.00;;
77733;SDS011;66902;41.720;44.796;2024-02-15T09:52:23;33.30;;;28.10;;
77733;SDS011;66902;41.720;44.796;2024-02-15T09:55:00;32.30;;;28.90;;
77733;SDS011;66902;41.720;44.796;2024-02-15T09:57:36;32.50;;;28.30;;
77733;SDS011;66902;41.720;44.796;2024-02-15T10:00:10;29.00;;;26.10;;
77733;SDS011;66902;41.720;44.796;2024-02-15T10:02:46;41.30;;;31.60;;
77733;SDS011;66902;41.720;44.796;2024-02-15T10:05:23;31.70;;;28.40;;
77733;SDS011;66902;41.720;44.796;2024-02-15T10:07:57;34.50;;;28.00;;
77733;SDS011;66902;41.720;44.796;2024-02-15T10:10:31;30.50;;;27.60;;
77733;SDS011;66902;41.720;44.796;2024-02-15T10:13:05;31.20;;;26.90;;
77733;SDS011;66902;41.720;44.796;2024-02-15T10:15:39;33.20;;;28.30;;
77733;SDS011;66902;41.720;44.796;2024-02-15T10:18:15;31.20;;;27.70;;
77733;SDS011;66902;41.720;44.796;2024-02-15T10:20:49;32.70;;;29.30;;
77733;SDS011;66902;41.720;44.796;2024-02-15T10:23:31;33.00;;;29.50;;
77733;SDS011;66902;41.720;44.796;2024-02-15T10:29:08;31.50;;;27.50;;
77733;SDS011;66902;41.720;44.796;2024-02-15T10:34:25;28.20;;;25.30;;
77733;SDS011;66902;41.720;44.796;2024-02-15T10:37:10;29.40;;;26.40;;
77733;SDS011;66902;41.720;44.796;2024-02-15T10:39:51;27.60;;;25.00;;
77733;SDS011;66902;41.720;44.796;2024-02-15T10:42:41;28.30;;;25.40;;
77733;SDS011;66902;41.720;44.796;2024-02-15T10:45:16;32.20;;;25.00;;
77733;SDS011;66902;41.720;44.796;2024-02-15T10:47:50;28.30;;;25.40;;
77733;SDS011;66902;41.720;44.796;2024-02-15T10:50:24;30.10;;;26.90;;
77733;SDS011;66902;41.720;44.796;2024-02-15T10:52:58;27.90;;;24.90;;
77733;SDS011;66902;41.720;44.796;2024-02-15T10:55:37;28.10;;;25.40;;
77733;SDS011;66902;41.720;44.796;2024-02-15T10:58:19;32.40;;;29.20;;
77733;SDS011;66902;41.720;44.796;2024-02-15T11:00:53;35.70;;;28.00;;
77733;SDS011;66902;41.720;44.796;2024-02-15T11:03:30;29.30;;;26.20;;
77733;SDS011;66902;41.720;44.796;2024-02-15T11:06:07;32.50;;;27.30;;
77733;SDS011;66902;41.720;44.796;2024-02-15T11:08:45;27.50;;;24.70;;
77733;SDS011;66902;41.720;44.796;2024-02-15T11:11:18;30.30;;;26.90;;
77733;SDS011;66902;41.720;44.796;2024-02-15T11:13:58;32.70;;;28.30;;
77733;SDS011;66902;41.720;44.796;2024-02-15T11:16:57;35.00;;;27.90;;
77733;SDS011;66902;41.720;44.796;2024-02-15T11:19:41;31.30;;;27.50;;
77733;SDS011;66902;41.720;44.796;2024-02-15T11:22:17;33.20;;;27.70;;
77733;SDS011;66902;41.720;44.796;2024-02-15T11:24:51;35.20;;;29.00;;
77733;SDS011;66902;41.720;44.796;2024-02-15T11:27:27;32.20;;;28.70;;
77733;SDS011;66902;41.720;44.796;2024-02-15T11:30:02;34.80;;;28.60;;
77733;SDS011;66902;41.720;44.796;2024-02-15T11:32:41;31.90;;;28.50;;
77733;SDS011;66902;41.720;44.796;2024-02-15T11:35:18;34.10;;;30.40;;
77733;SDS011;66902;41.720;44.796;2024-02-15T11:37:55;37.20;;;30.60;;
77733;SDS011;66902;41.720;44.796;2024-02-15T11:43:54;31.50;;;28.10;;
77733;SDS011;66902;41.720;44.796;2024-02-15T11:46:29;29.90;;;26.90;;
77733;SDS011;66902;41.720;44.796;2024-02-15T11:49:04;33.90;;;29.20;;
77733;SDS011;66902;41.720;44.796;2024-02-15T11:51:37;32.00;;;28.60;;
77733;SDS011;66902;41.720;44.796;2024-02-15T11:54:13;37.10;;;29.50;;
77733;SDS011;66902;41.720;44.796;2024-02-15T11:56:54;30.40;;;27.00;;
77733;SDS011;66902;41.720;44.796;2024-02-15T11:59:41;30.90;;;27.60;;
77733;SDS011;66902;41.720;44.796;2024-02-15T12:02:44;34.10;;;30.80;;
77733;SDS011;66902;41.720;44.796;2024-02-15T12:05:50;32.80;;;29.10;;
77733;SDS011;66902;41.720;44.796;2024-02-15T12:08:43;32.80;;;28.70;;
77733;SDS011;66902;41.720;44.796;2024-02-15T12:11:34;33.20;;;29.10;;
77733;SDS011;66902;41.720;44.796;2024-02-15T12:14:25;35.00;;;31.30;;
77733;SDS011;66902;41.720;44.796;2024-02-15T12:17:16;36.10;;;28.50;;
77733;SDS011;66902;41.720;44.796;2024-02-15T12:20:08;32.80;;;29.30;;
77733;SDS011;66902;41.720;44.796;2024-02-15T12:22:44;35.30;;;30.10;;
77733;SDS011;66902;41.720;44.796;2024-02-15T12:25:20;34.40;;;30.80;;
77733;SDS011;66902;41.720;44.796;2024-02-15T12:27:54;41.90;;;32.40;;
77733;SDS011;66902;41.720;44.796;2024-02-15T12:30:32;36.40;;;32.50;;
77733;SDS011;66902;41.720;44.796;2024-02-15T12:33:11;41.40;;;32.20;;
77733;SDS011;66902;41.720;44.796;2024-02-15T12:35:50;32.70;;;29.20;;
77733;SDS011;66902;41.720;44.796;2024-02-15T12:38:24;36.50;;;32.60;;
77733;SDS011;66902;41.720;44.796;2024-02-15T12:40:57;34.60;;;30.90;;
77733;SDS011;66902;41.720;44.796;2024-02-15T12:43:32;32.90;;;29.40;;
77733;SDS011;66902;41.720;44.796;2024-02-15T12:46:06;35.00;;;30.10;;
77733;SDS011;66902;41.720;44.796;2024-02-15T12:48:44;33.80;;;30.30;;
77733;SDS011;66902;41.720;44.796;2024-02-15T12:51:18;43.40;;;35.70;;
77733;SDS011;66902;41.720;44.796;2024-02-15T12:53:52;35.30;;;31.40;;
77733;SDS011;66902;41.720;44.796;2024-02-15T12:56:29;39.00;;;33.40;;
77733;SDS011;66902;41.720;44.796;2024-02-15T12:59:03;37.70;;;33.70;;
77733;SDS011;66902;41.720;44.796;2024-02-15T13:01:36;44.40;;;35.40;;
77733;SDS011;66902;41.720;44.796;2024-02-15T13:04:10;43.90;;;34.50;;
77733;SDS011;66902;41.720;44.796;2024-02-15T13:06:45;37.80;;;33.80;;
77733;SDS011;66902;41.720;44.796;2024-02-15T13:09:20;42.60;;;35.20;;
77733;SDS011;66902;41.720;44.796;2024-02-15T13:11:55;42.00;;;33.20;;
77733;SDS011;66902;41.720;44.796;2024-02-15T13:14:29;38.40;;;34.30;;
77733;SDS011;66902;41.720;44.796;2024-02-15T13:17:04;47.80;;;34.80;;
77733;SDS011;66902;41.720;44.796;2024-02-15T13:19:38;35.40;;;31.30;;
77733;SDS011;66902;41.720;44.796;2024-02-15T13:22:12;44.30;;;35.50;;
77733;SDS011;66902;41.720;44.796;2024-02-15T13:24:48;41.80;;;35.70;;
77733;SDS011;66902;41.720;44.796;2024-02-15T13:27:22;45.20;;;37.40;;
77733;SDS011;66902;41.720;44.796;2024-02-15T13:29:56;44.10;;;35.60;;
77733;SDS011;66902;41.720;44.796;2024-02-15T13:32:30;38.20;;;33.60;;
77733;SDS011;66902;41.720;44.796;2024-02-15T13:35:06;38.00;;;33.80;;
77733;SDS011;66902;41.720;44.796;2024-02-15T13:37:45;40.50;;;36.60;;
77733;SDS011;66902;41.720;44.796;2024-02-15T13:40:19;37.00;;;32.80;;
77733;SDS011;66902;41.720;44.796;2024-02-15T13:42:55;44.50;;;36.90;;
77733;SDS011;66902;41.720;44.796;2024-02-15T13:45:30;36.60;;;33.00;;
77733;SDS011;66902;41.720;44.796;2024-02-15T13:48:05;40.50;;;35.10;;
77733;SDS011;66902;41.720;44.796;2024-02-15T13:50:40;41.20;;;33.50;;
77733;SDS011;66902;41.720;44.796;2024-02-15T13:53:15;41.60;;;37.00;;
77733;SDS011;66902;41.720;44.796;2024-02-15T13:55:48;43.50;;;34.80;;
77733;SDS011;66902;41.720;44.796;2024-02-15T13:58:22;45.20;;;35.80;;
77733;SDS011;66902;41.720;44.796;2024-02-15T14:00:55;47.10;;;36.20;;
77733;SDS011;66902;41.720;44.796;2024-02-15T14:03:33;44.00;;;36.70;;
77733;SDS011;66902;41.720;44.796;2024-02-15T14:06:06;40.80;;;36.50;;
77733;SDS011;66902;41.720;44.796;2024-02-15T14:08:47;45.20;;;35.80;;
77733;SDS011;66902;41.720;44.796;2024-02-15T14:11:20;41.70;;;35.30;;
77733;SDS011;66902;41.720;44.796;2024-02-15T14:14:03;42.30;;;37.10;;
77733;SDS011;66902;41.720;44.796;2024-02-15T14:16:37;48.80;;;35.60;;
77733;SDS011;66902;41.720;44.796;2024-02-15T14:19:22;39.20;;;35.20;;
77733;SDS011;66902;41.720;44.796;2024-02-15T14:21:56;42.80;;;37.40;;
77733;SDS011;66902;41.720;44.796;2024-02-15T14:24:32;40.00;;;35.50;;
77733;SDS011;66902;41.720;44.796;2024-02-15T14:27:10;52.50;;;37.60;;
77733;SDS011;66902;41.720;44.796;2024-02-15T14:29:45;41.20;;;34.30;;
77733;SDS011;66902;41.720;44.796;2024-02-15T14:32:45;42.80;;;38.40;;
77733;SDS011;66902;41.720;44.796;2024-02-15T14:35:35;43.40;;;37.40;;
77733;SDS011;66902;41.720;44.796;2024-02-15T14:38:11;44.60;;;38.50;;
77733;SDS011;66902;41.720;44.796;2024-02-15T14:40:47;40.00;;;35.70;;
77733;SDS011;66902;41.720;44.796;2024-02-15T14:43:24;44.40;;;39.50;;
77733;SDS011;66902;41.720;44.796;2024-02-15T14:45:59;47.90;;;40.60;;
77733;SDS011;66902;41.720;44.796;2024-02-15T14:48:35;46.20;;;40.90;;
77733;SDS011;66902;41.720;44.796;2024-02-15T14:51:16;55.20;;;42.80;;
77733;SDS011;66902;41.720;44.796;2024-02-15T14:53:51;50.20;;;43.20;;
77733;SDS011;66902;41.720;44.796;2024-02-15T14:56:25;47.50;;;42.40;;
77733;SDS011;66902;41.720;44.796;2024-02-15T14:59:07;58.80;;;45.00;;
77733;SDS011;66902;41.720;44.796;2024-02-15T15:01:41;52.70;;;45.10;;
77733;SDS011;66902;41.720;44.796;2024-02-15T15:04:14;66.30;;;55.20;;
77733;SDS011;66902;41.720;44.796;2024-02-15T15:06:48;56.80;;;50.60;;